sensor_id;sensor_type;location;lat;lon;timestamp;temperature;humidity
53800;DHT22;39708;53.210;6.948;2023-02-25T00:02:11;3.50;99.90
53800;DHT22;39708;53.210;6.948;2023-02-25T00:04:37;3.50;99.90
53800;DHT22;39708;53.210;6.948;2023-02-25T00:07:05;3.50;99.90
53800;DHT22;39708;53.210;6.948;2023-02-25T00:09:30;3.40;99.90
53800;DHT22;39708;53.210;6.948;2023-02-25T00:11:56;3.40;99.90
53800;DHT22;39708;53.210;6.948;2023-02-25T00:14:21;3.30;99.90
53800;DHT22;39708;53.210;6.948;2023-02-25T00:16:50;3.30;99.90
53800;DHT22;39708;53.210;6.948;2023-02-25T00:19:20;3.40;99.90
53800;DHT22;39708;53.210;6.948;2023-02-25T00:21:46;3.30;99.90
53800;DHT22;39708;53.210;6.948;2023-02-25T00:24:12;3.50;99.90
53800;DHT22;39708;53.210;6.948;2023-02-25T00:26:38;3.30;99.90
53800;DHT22;39708;53.210;6.948;2023-02-25T00:29:04;3.30;99.90
53800;DHT22;39708;53.210;6.948;2023-02-25T00:31:30;3.30;99.90
53800;DHT22;39708;53.210;6.948;2023-02-25T00:33:56;3.20;99.90
53800;DHT22;39708;53.210;6.948;2023-02-25T00:36:24;3.10;99.90
53800;DHT22;39708;53.210;6.948;2023-02-25T00:38:51;2.80;99.90
53800;DHT22;39708;53.210;6.948;2023-02-25T00:41:20;2.50;99.90
53800;DHT22;39708;53.210;6.948;2023-02-25T00:43:54;2.20;99.90
53800;DHT22;39708;53.210;6.948;2023-02-25T00:46:21;2.10;99.90
53800;DHT22;39708;53.210;6.948;2023-02-25T00:48:47;2.00;99.90
53800;DHT22;39708;53.210;6.948;2023-02-25T00:51:15;1.90;99.90
53800;DHT22;39708;53.210;6.948;2023-02-25T00:53:41;1.80;99.90
53800;DHT22;39708;53.210;6.948;2023-02-25T00:56:08;1.90;99.90
53800;DHT22;39708;53.210;6.948;2023-02-25T00:58:38;2.10;99.90
53800;DHT22;39708;53.210;6.948;2023-02-25T01:01:05;2.30;99.90
53800;DHT22;39708;53.210;6.948;2023-02-25T01:03:39;2.50;99.90
53800;DHT22;39708;53.210;6.948;2023-02-25T01:06:07;2.80;99.90
53800;DHT22;39708;53.210;6.948;2023-02-25T01:08:32;3.20;99.90
53800;DHT22;39708;53.210;6.948;2023-02-25T01:10:58;3.20;99.90
53800;DHT22;39708;53.210;6.948;2023-02-25T01:13:24;2.90;99.90
53800;DHT22;39708;53.210;6.948;2023-02-25T01:15:49;2.60;99.90
53800;DHT22;39708;53.210;6.948;2023-02-25T01:18:15;2.30;99.90
53800;DHT22;39708;53.210;6.948;2023-02-25T01:20:45;2.00;99.90
53800;DHT22;39708;53.210;6.948;2023-02-25T01:23:11;2.10;99.90
53800;DHT22;39708;53.210;6.948;2023-02-25T01:25:39;1.90;99.90
53800;DHT22;39708;53.210;6.948;2023-02-25T01:28:05;1.90;99.90
53800;DHT22;39708;53.210;6.948;2023-02-25T01:30:31;2.50;99.90
53800;DHT22;39708;53.210;6.948;2023-02-25T01:32:57;1.60;99.90
53800;DHT22;39708;53.210;6.948;2023-02-25T01:35:22;1.80;99.90
53800;DHT22;39708;53.210;6.948;2023-02-25T01:37:48;1.70;99.90
53800;DHT22;39708;53.210;6.948;2023-02-25T01:40:15;1.70;99.90
53800;DHT22;39708;53.210;6.948;2023-02-25T01:42:43;1.60;99.90
53800;DHT22;39708;53.210;6.948;2023-02-25T01:48:11;1.60;99.90
53800;DHT22;39708;53.210;6.948;2023-02-25T01:50:51;1.70;99.90
53800;DHT22;39708;53.210;6.948;2023-02-25T01:53:22;1.60;99.90
53800;DHT22;39708;53.210;6.948;2023-02-25T01:55:50;2.20;99.90
53800;DHT22;39708;53.210;6.948;2023-02-25T01:58:16;1.70;99.90
53800;DHT22;39708;53.210;6.948;2023-02-25T02:00:43;1.80;99.90
53800;DHT22;39708;53.210;6.948;2023-02-25T02:03:09;1.80;99.90
53800;DHT22;39708;53.210;6.948;2023-02-25T02:06:12;2.00;99.90
53800;DHT22;39708;53.210;6.948;2023-02-25T02:08:40;2.10;99.90
53800;DHT22;39708;53.210;6.948;2023-02-25T02:11:06;2.60;99.90
53800;DHT22;39708;53.210;6.948;2023-02-25T02:13:35;2.50;99.90
53800;DHT22;39708;53.210;6.948;2023-02-25T02:19:24;2.90;99.90
53800;DHT22;39708;53.210;6.948;2023-02-25T02:30:54;1.80;99.90
53800;DHT22;39708;53.210;6.948;2023-02-25T02:33:40;1.60;99.90
53800;DHT22;39708;53.210;6.948;2023-02-25T02:39:19;1.60;99.90
53800;DHT22;39708;53.210;6.948;2023-02-25T02:42:00;2.00;99.90
53800;DHT22;39708;53.210;6.948;2023-02-25T02:44:43;1.60;99.90
53800;DHT22;39708;53.210;6.948;2023-02-25T02:47:15;1.60;99.90
53800;DHT22;39708;53.210;6.948;2023-02-25T02:49:53;1.60;99.90
53800;DHT22;39708;53.210;6.948;2023-02-25T02:52:28;1.60;99.90
53800;DHT22;39708;53.210;6.948;2023-02-25T02:55:00;1.80;99.90
53800;DHT22;39708;53.210;6.948;2023-02-25T02:57:28;1.90;99.90
53800;DHT22;39708;53.210;6.948;2023-02-25T02:59:58;1.90;99.90
53800;DHT22;39708;53.210;6.948;2023-02-25T03:02:34;1.90;99.90
53800;DHT22;39708;53.210;6.948;2023-02-25T03:05:05;1.90;99.90
53800;DHT22;39708;53.210;6.948;2023-02-25T03:07:35;1.90;99.90
53800;DHT22;39708;53.210;6.948;2023-02-25T03:10:04;2.20;99.90
53800;DHT22;39708;53.210;6.948;2023-02-25T03:12:31;1.90;99.90
53800;DHT22;39708;53.210;6.948;2023-02-25T03:14:58;1.90;99.90
53800;DHT22;39708;53.210;6.948;2023-02-25T03:17:32;2.00;99.90
53800;DHT22;39708;53.210;6.948;2023-02-25T03:23:06;1.90;99.90
53800;DHT22;39708;53.210;6.948;2023-02-25T03:25:41;2.00;99.90
53800;DHT22;39708;53.210;6.948;2023-02-25T03:28:27;1.90;99.90
53800;DHT22;39708;53.210;6.948;2023-02-25T03:32:13;1.90;99.90
53800;DHT22;39708;53.210;6.948;2023-02-25T03:34:11;1.80;99.90
53800;DHT22;39708;53.210;6.948;2023-02-25T03:36:43;2.00;99.90
53800;DHT22;39708;53.210;6.948;2023-02-25T03:39:12;2.20;99.90
53800;DHT22;39708;53.210;6.948;2023-02-25T03:41:42;2.30;99.90
53800;DHT22;39708;53.210;6.948;2023-02-25T03:44:14;2.40;99.90
53800;DHT22;39708;53.210;6.948;2023-02-25T03:46:42;2.00;99.90
53800;DHT22;39708;53.210;6.948;2023-02-25T03:52:13;1.60;99.90
53800;DHT22;39708;53.210;6.948;2023-02-25T03:54:39;1.50;99.90
53800;DHT22;39708;53.210;6.948;2023-02-25T03:57:05;1.50;99.90
53800;DHT22;39708;53.210;6.948;2023-02-25T03:59:31;1.70;99.90
53800;DHT22;39708;53.210;6.948;2023-02-25T04:01:57;2.60;99.90
53800;DHT22;39708;53.210;6.948;2023-02-25T04:04:25;1.70;99.90
53800;DHT22;39708;53.210;6.948;2023-02-25T04:06:51;1.80;99.90
53800;DHT22;39708;53.210;6.948;2023-02-25T04:09:17;1.40;99.90
53800;DHT22;39708;53.210;6.948;2023-02-25T04:11:42;1.50;99.90
53800;DHT22;39708;53.210;6.948;2023-02-25T04:14:08;1.40;99.90
53800;DHT22;39708;53.210;6.948;2023-02-25T04:16:34;1.30;99.90
53800;DHT22;39708;53.210;6.948;2023-02-25T04:18:59;1.30;99.90
53800;DHT22;39708;53.210;6.948;2023-02-25T04:21:33;1.30;99.90
53800;DHT22;39708;53.210;6.948;2023-02-25T04:24:00;1.30;99.90
53800;DHT22;39708;53.210;6.948;2023-02-25T04:26:26;1.40;99.90
53800;DHT22;39708;53.210;6.948;2023-02-25T04:28:52;1.30;99.90
53800;DHT22;39708;53.210;6.948;2023-02-25T04:31:18;1.40;99.90
53800;DHT22;39708;53.210;6.948;2023-02-25T04:33:44;1.50;99.90
53800;DHT22;39708;53.210;6.948;2023-02-25T04:36:25;1.40;99.90
53800;DHT22;39708;53.210;6.948;2023-02-25T04:38:51;1.60;99.90
53800;DHT22;39708;53.210;6.948;2023-02-25T04:41:17;1.50;99.90
53800;DHT22;39708;53.210;6.948;2023-02-25T04:43:43;1.50;99.90
53800;DHT22;39708;53.210;6.948;2023-02-25T04:46:12;1.50;99.90
53800;DHT22;39708;53.210;6.948;2023-02-25T04:48:38;1.50;99.90
53800;DHT22;39708;53.210;6.948;2023-02-25T04:51:07;1.60;99.90
53800;DHT22;39708;53.210;6.948;2023-02-25T04:53:33;1.70;99.90
53800;DHT22;39708;53.210;6.948;2023-02-25T04:56:07;1.90;99.90
53800;DHT22;39708;53.210;6.948;2023-02-25T04:58:34;2.00;99.90
53800;DHT22;39708;53.210;6.948;2023-02-25T05:01:02;2.20;99.90
53800;DHT22;39708;53.210;6.948;2023-02-25T05:03:28;3.50;99.90
53800;DHT22;39708;53.210;6.948;2023-02-25T05:05:54;2.40;99.90
53800;DHT22;39708;53.210;6.948;2023-02-25T05:08:21;2.10;99.90
53800;DHT22;39708;53.210;6.948;2023-02-25T05:10:47;1.90;99.90
53800;DHT22;39708;53.210;6.948;2023-02-25T05:13:12;1.80;99.90
53800;DHT22;39708;53.210;6.948;2023-02-25T05:15:38;1.50;99.90
53800;DHT22;39708;53.210;6.948;2023-02-25T05:18:04;1.40;99.90
53800;DHT22;39708;53.210;6.948;2023-02-25T05:20:29;1.30;99.90
53800;DHT22;39708;53.210;6.948;2023-02-25T05:22:55;1.40;99.90
53800;DHT22;39708;53.210;6.948;2023-02-25T05:25:21;1.50;99.90
53800;DHT22;39708;53.210;6.948;2023-02-25T05:27:46;1.40;99.90
53800;DHT22;39708;53.210;6.948;2023-02-25T05:30:13;1.40;99.90
53800;DHT22;39708;53.210;6.948;2023-02-25T05:32:39;1.40;99.90
53800;DHT22;39708;53.210;6.948;2023-02-25T05:35:06;1.50;99.90
53800;DHT22;39708;53.210;6.948;2023-02-25T05:37:35;1.40;99.90
53800;DHT22;39708;53.210;6.948;2023-02-25T05:40:01;1.40;99.90
53800;DHT22;39708;53.210;6.948;2023-02-25T05:42:27;1.50;99.90
53800;DHT22;39708;53.210;6.948;2023-02-25T05:44:53;1.70;99.90
53800;DHT22;39708;53.210;6.948;2023-02-25T05:47:20;1.70;99.90
53800;DHT22;39708;53.210;6.948;2023-02-25T05:49:45;1.70;99.90
53800;DHT22;39708;53.210;6.948;2023-02-25T05:52:13;1.70;99.90
53800;DHT22;39708;53.210;6.948;2023-02-25T05:54:39;1.80;99.90
53800;DHT22;39708;53.210;6.948;2023-02-25T05:57:05;1.80;99.90
53800;DHT22;39708;53.210;6.948;2023-02-25T05:59:31;1.80;99.90
53800;DHT22;39708;53.210;6.948;2023-02-25T06:01:56;1.80;99.90
53800;DHT22;39708;53.210;6.948;2023-02-25T06:04:22;1.80;99.90
53800;DHT22;39708;53.210;6.948;2023-02-25T06:06:48;1.80;99.90
53800;DHT22;39708;53.210;6.948;2023-02-25T06:09:18;1.90;99.90
53800;DHT22;39708;53.210;6.948;2023-02-25T06:11:45;2.00;99.90
53800;DHT22;39708;53.210;6.948;2023-02-25T06:14:11;2.10;99.90
53800;DHT22;39708;53.210;6.948;2023-02-25T06:16:38;2.00;99.90
53800;DHT22;39708;53.210;6.948;2023-02-25T06:19:04;2.00;99.90
53800;DHT22;39708;53.210;6.948;2023-02-25T06:21:34;2.00;99.90
53800;DHT22;39708;53.210;6.948;2023-02-25T06:24:02;1.90;99.90
53800;DHT22;39708;53.210;6.948;2023-02-25T06:26:28;1.80;99.90
53800;DHT22;39708;53.210;6.948;2023-02-25T06:28:54;2.50;99.90
53800;DHT22;39708;53.210;6.948;2023-02-25T06:31:22;2.00;99.90
53800;DHT22;39708;53.210;6.948;2023-02-25T06:33:48;1.90;99.90
53800;DHT22;39708;53.210;6.948;2023-02-25T06:36:17;1.90;99.90
53800;DHT22;39708;53.210;6.948;2023-02-25T06:38:45;2.00;99.90
53800;DHT22;39708;53.210;6.948;2023-02-25T06:41:16;1.90;99.90
53800;DHT22;39708;53.210;6.948;2023-02-25T06:43:43;2.00;99.90
53800;DHT22;39708;53.210;6.948;2023-02-25T06:46:12;2.00;99.90
53800;DHT22;39708;53.210;6.948;2023-02-25T06:48:39;3.10;99.90
53800;DHT22;39708;53.210;6.948;2023-02-25T06:51:05;2.00;99.90
53800;DHT22;39708;53.210;6.948;2023-02-25T06:53:38;2.20;99.90
53800;DHT22;39708;53.210;6.948;2023-02-25T06:56:04;2.30;99.90
53800;DHT22;39708;53.210;6.948;2023-02-25T06:58:31;2.40;99.90
53800;DHT22;39708;53.210;6.948;2023-02-25T07:00:57;2.50;99.90
53800;DHT22;39708;53.210;6.948;2023-02-25T07:03:22;2.20;99.90
53800;DHT22;39708;53.210;6.948;2023-02-25T07:05:48;1.80;99.90
53800;DHT22;39708;53.210;6.948;2023-02-25T07:08:14;1.60;99.90
53800;DHT22;39708;53.210;6.948;2023-02-25T07:10:39;1.60;99.90
53800;DHT22;39708;53.210;6.948;2023-02-25T07:13:07;1.50;99.90
53800;DHT22;39708;53.210;6.948;2023-02-25T07:15:33;2.10;99.90
53800;DHT22;39708;53.210;6.948;2023-02-25T07:17:59;2.10;99.90
53800;DHT22;39708;53.210;6.948;2023-02-25T07:20:25;3.50;99.90
53800;DHT22;39708;53.210;6.948;2023-02-25T07:22:50;3.00;99.90
53800;DHT22;39708;53.210;6.948;2023-02-25T07:25:16;3.30;99.90
53800;DHT22;39708;53.210;6.948;2023-02-25T07:27:43;3.40;99.90
53800;DHT22;39708;53.210;6.948;2023-02-25T07:30:09;3.80;99.90
53800;DHT22;39708;53.210;6.948;2023-02-25T07:32:39;3.50;99.90
53800;DHT22;39708;53.210;6.948;2023-02-25T07:35:05;3.50;99.90
53800;DHT22;39708;53.210;6.948;2023-02-25T07:37:30;3.50;99.90
53800;DHT22;39708;53.210;6.948;2023-02-25T07:39:56;3.50;99.90
53800;DHT22;39708;53.210;6.948;2023-02-25T07:42:26;3.40;99.90
53800;DHT22;39708;53.210;6.948;2023-02-25T07:44:51;3.30;99.90
53800;DHT22;39708;53.210;6.948;2023-02-25T07:47:17;3.40;99.90
53800;DHT22;39708;53.210;6.948;2023-02-25T07:49:44;4.30;99.90
53800;DHT22;39708;53.210;6.948;2023-02-25T07:52:10;3.60;99.90
53800;DHT22;39708;53.210;6.948;2023-02-25T07:54:35;3.70;99.90
53800;DHT22;39708;53.210;6.948;2023-02-25T07:57:01;3.80;99.90
53800;DHT22;39708;53.210;6.948;2023-02-25T07:59:27;3.80;99.90
53800;DHT22;39708;53.210;6.948;2023-02-25T08:01:53;4.20;99.90
53800;DHT22;39708;53.210;6.948;2023-02-25T08:04:19;3.70;99.90
53800;DHT22;39708;53.210;6.948;2023-02-25T08:06:44;3.60;99.90
53800;DHT22;39708;53.210;6.948;2023-02-25T08:09:11;3.50;99.90
53800;DHT22;39708;53.210;6.948;2023-02-25T08:11:38;3.60;99.90
53800;DHT22;39708;53.210;6.948;2023-02-25T08:14:04;3.50;99.90
53800;DHT22;39708;53.210;6.948;2023-02-25T08:16:31;3.50;99.90
53800;DHT22;39708;53.210;6.948;2023-02-25T08:18:57;3.50;99.90
53800;DHT22;39708;53.210;6.948;2023-02-25T08:21:23;3.50;99.90
53800;DHT22;39708;53.210;6.948;2023-02-25T08:23:53;3.50;99.90
53800;DHT22;39708;53.210;6.948;2023-02-25T08:26:20;3.60;99.90
53800;DHT22;39708;53.210;6.948;2023-02-25T08:28:47;3.50;99.90
53800;DHT22;39708;53.210;6.948;2023-02-25T08:31:13;3.50;99.90
53800;DHT22;39708;53.210;6.948;2023-02-25T08:33:42;3.50;99.90
53800;DHT22;39708;53.210;6.948;2023-02-25T08:36:10;3.60;99.90
53800;DHT22;39708;53.210;6.948;2023-02-25T08:38:37;3.70;99.90
53800;DHT22;39708;53.210;6.948;2023-02-25T08:41:04;3.80;99.90
53800;DHT22;39708;53.210;6.948;2023-02-25T08:43:31;3.80;99.90
53800;DHT22;39708;53.210;6.948;2023-02-25T08:45:57;3.80;99.90
53800;DHT22;39708;53.210;6.948;2023-02-25T08:48:22;3.90;99.90
53800;DHT22;39708;53.210;6.948;2023-02-25T08:50:48;3.90;99.90
53800;DHT22;39708;53.210;6.948;2023-02-25T08:53:14;3.90;99.90
53800;DHT22;39708;53.210;6.948;2023-02-25T08:55:39;3.90;99.90
53800;DHT22;39708;53.210;6.948;2023-02-25T08:58:06;3.90;99.90
53800;DHT22;39708;53.210;6.948;2023-02-25T09:00:32;3.90;99.90
53800;DHT22;39708;53.210;6.948;2023-02-25T09:02:58;3.90;99.90
53800;DHT22;39708;53.210;6.948;2023-02-25T09:05:24;3.90;99.90
53800;DHT22;39708;53.210;6.948;2023-02-25T09:07:50;3.90;99.90
53800;DHT22;39708;53.210;6.948;2023-02-25T09:10:17;4.10;99.90
53800;DHT22;39708;53.210;6.948;2023-02-25T09:12:44;3.90;99.90
53800;DHT22;39708;53.210;6.948;2023-02-25T09:15:12;3.90;99.90
53800;DHT22;39708;53.210;6.948;2023-02-25T09:17:38;4.00;99.90
53800;DHT22;39708;53.210;6.948;2023-02-25T09:20:05;4.20;99.90
53800;DHT22;39708;53.210;6.948;2023-02-25T09:22:37;4.10;99.90
53800;DHT22;39708;53.210;6.948;2023-02-25T09:25:05;4.10;99.90
53800;DHT22;39708;53.210;6.948;2023-02-25T09:27:31;4.10;99.90
53800;DHT22;39708;53.210;6.948;2023-02-25T09:29:57;4.10;99.90
53800;DHT22;39708;53.210;6.948;2023-02-25T09:32:22;4.10;99.90
53800;DHT22;39708;53.210;6.948;2023-02-25T09:34:48;4.60;99.90
53800;DHT22;39708;53.210;6.948;2023-02-25T09:37:17;4.10;99.90
53800;DHT22;39708;53.210;6.948;2023-02-25T09:39:44;4.80;99.90
53800;DHT22;39708;53.210;6.948;2023-02-25T09:42:16;4.70;99.90
53800;DHT22;39708;53.210;6.948;2023-02-25T09:44:54;4.20;99.90
53800;DHT22;39708;53.210;6.948;2023-02-25T09:50:10;4.30;99.90
53800;DHT22;39708;53.210;6.948;2023-02-25T09:55:47;4.50;99.90
53800;DHT22;39708;53.210;6.948;2023-02-25T09:58:40;4.30;99.90
53800;DHT22;39708;53.210;6.948;2023-02-25T10:06:41;4.30;99.90
53800;DHT22;39708;53.210;6.948;2023-02-25T10:14:42;4.20;99.90
53800;DHT22;39708;53.210;6.948;2023-02-25T10:26:13;3.90;99.90
53800;DHT22;39708;53.210;6.948;2023-02-25T10:28:40;3.90;99.90
53800;DHT22;39708;53.210;6.948;2023-02-25T10:31:12;4.20;99.90
53800;DHT22;39708;53.210;6.948;2023-02-25T10:33:43;4.90;99.90
53800;DHT22;39708;53.210;6.948;2023-02-25T10:36:29;4.20;99.90
53800;DHT22;39708;53.210;6.948;2023-02-25T10:38:55;4.80;99.90
53800;DHT22;39708;53.210;6.948;2023-02-25T10:41:23;5.50;99.90
53800;DHT22;39708;53.210;6.948;2023-02-25T10:43:52;6.00;99.90
53800;DHT22;39708;53.210;6.948;2023-02-25T10:46:35;6.50;99.90
53800;DHT22;39708;53.210;6.948;2023-02-25T10:49:15;6.40;99.90
53800;DHT22;39708;53.210;6.948;2023-02-25T10:52:06;6.30;99.90
53800;DHT22;39708;53.210;6.948;2023-02-25T10:54:43;6.40;99.90
53800;DHT22;39708;53.210;6.948;2023-02-25T10:57:17;6.60;99.90
53800;DHT22;39708;53.210;6.948;2023-02-25T10:59:59;6.70;99.90
53800;DHT22;39708;53.210;6.948;2023-02-25T11:02:28;6.40;99.90
53800;DHT22;39708;53.210;6.948;2023-02-25T11:04:56;6.10;99.90
53800;DHT22;39708;53.210;6.948;2023-02-25T11:07:30;6.30;99.90
53800;DHT22;39708;53.210;6.948;2023-02-25T11:10:20;6.50;99.90
53800;DHT22;39708;53.210;6.948;2023-02-25T11:12:48;6.50;99.90
53800;DHT22;39708;53.210;6.948;2023-02-25T11:15:38;6.80;99.90
53800;DHT22;39708;53.210;6.948;2023-02-25T11:18:22;6.70;99.90
53800;DHT22;39708;53.210;6.948;2023-02-25T11:20:59;6.70;99.90
53800;DHT22;39708;53.210;6.948;2023-02-25T11:23:35;6.60;99.90
53800;DHT22;39708;53.210;6.948;2023-02-25T11:26:03;6.60;99.90
53800;DHT22;39708;53.210;6.948;2023-02-25T11:28:38;6.50;99.90
53800;DHT22;39708;53.210;6.948;2023-02-25T11:31:04;6.30;99.90
53800;DHT22;39708;53.210;6.948;2023-02-25T11:33:34;6.20;99.90
53800;DHT22;39708;53.210;6.948;2023-02-25T11:36:01;5.90;99.90
53800;DHT22;39708;53.210;6.948;2023-02-25T11:38:31;5.60;99.90
53800;DHT22;39708;53.210;6.948;2023-02-25T11:40:57;5.40;99.90
53800;DHT22;39708;53.210;6.948;2023-02-25T11:43:25;5.40;99.90
53800;DHT22;39708;53.210;6.948;2023-02-25T11:46:00;5.30;99.90
53800;DHT22;39708;53.210;6.948;2023-02-25T11:56:38;5.30;99.90
53800;DHT22;39708;53.210;6.948;2023-02-25T12:02:13;5.30;99.90
53800;DHT22;39708;53.210;6.948;2023-02-25T12:15:18;5.00;99.90
53800;DHT22;39708;53.210;6.948;2023-02-25T12:26:04;5.30;99.90
53800;DHT22;39708;53.210;6.948;2023-02-25T12:31:32;5.30;99.90
53800;DHT22;39708;53.210;6.948;2023-02-25T12:39:56;5.00;99.90
53800;DHT22;39708;53.210;6.948;2023-02-25T12:54:39;5.10;99.90
53800;DHT22;39708;53.210;6.948;2023-02-25T13:05:54;5.30;99.90
53800;DHT22;39708;53.210;6.948;2023-02-25T13:13:45;5.50;99.90
53800;DHT22;39708;53.210;6.948;2023-02-25T13:21:45;5.50;99.90
53800;DHT22;39708;53.210;6.948;2023-02-25T13:26:59;5.60;99.90
53800;DHT22;39708;53.210;6.948;2023-02-25T13:32:39;5.60;99.90
53800;DHT22;39708;53.210;6.948;2023-02-25T13:35:16;5.60;99.90
53800;DHT22;39708;53.210;6.948;2023-02-25T13:46:55;5.50;99.90
53800;DHT22;39708;53.210;6.948;2023-02-25T13:52:16;5.40;99.90
53800;DHT22;39708;53.210;6.948;2023-02-25T14:00:07;5.00;99.90
53800;DHT22;39708;53.210;6.948;2023-02-25T14:08:11;5.10;99.90
53800;DHT22;39708;53.210;6.948;2023-02-25T14:10:53;5.00;99.90
53800;DHT22;39708;53.210;6.948;2023-02-25T14:27:19;5.20;99.90
53800;DHT22;39708;53.210;6.948;2023-02-25T14:30:13;5.30;99.90
53800;DHT22;39708;53.210;6.948;2023-02-25T14:32:51;5.30;99.90
53800;DHT22;39708;53.210;6.948;2023-02-25T14:35:32;5.30;99.90
53800;DHT22;39708;53.210;6.948;2023-02-25T14:41:11;5.10;99.90
53800;DHT22;39708;53.210;6.948;2023-02-25T14:43:41;5.10;99.90
53800;DHT22;39708;53.210;6.948;2023-02-25T14:46:56;5.20;99.90
53800;DHT22;39708;53.210;6.948;2023-02-25T14:49:49;5.00;99.90
53800;DHT22;39708;53.210;6.948;2023-02-25T14:55:30;5.00;99.90
53800;DHT22;39708;53.210;6.948;2023-02-25T15:01:03;5.00;99.90
53800;DHT22;39708;53.210;6.948;2023-02-25T15:10:00;5.00;99.90
53800;DHT22;39708;53.210;6.948;2023-02-25T15:18:10;5.00;99.90
53800;DHT22;39708;53.210;6.948;2023-02-25T15:20:42;5.00;99.90
53800;DHT22;39708;53.210;6.948;2023-02-25T15:26:38;4.90;99.90
53800;DHT22;39708;53.210;6.948;2023-02-25T15:33:39;4.80;99.90
53800;DHT22;39708;53.210;6.948;2023-02-25T15:38:45;4.70;99.90
53800;DHT22;39708;53.210;6.948;2023-02-25T15:49:26;4.60;99.90
53800;DHT22;39708;53.210;6.948;2023-02-25T15:51:53;4.50;99.90
53800;DHT22;39708;53.210;6.948;2023-02-25T15:56:58;4.50;99.90
53800;DHT22;39708;53.210;6.948;2023-02-25T15:59:50;4.40;99.90
53800;DHT22;39708;53.210;6.948;2023-02-25T16:07:41;4.30;99.90
53800;DHT22;39708;53.210;6.948;2023-02-25T16:12:45;5.10;99.90
53800;DHT22;39708;53.210;6.948;2023-02-25T16:15:38;4.20;99.90
53800;DHT22;39708;53.210;6.948;2023-02-25T16:20:48;4.10;99.90
53800;DHT22;39708;53.210;6.948;2023-02-25T16:23:14;4.00;99.90
53800;DHT22;39708;53.210;6.948;2023-02-25T16:28:32;3.90;99.90
53800;DHT22;39708;53.210;6.948;2023-02-25T16:31:08;3.90;99.90
53800;DHT22;39708;53.210;6.948;2023-02-25T16:34:01;3.80;99.90
53800;DHT22;39708;53.210;6.948;2023-02-25T16:36:51;3.80;99.90
53800;DHT22;39708;53.210;6.948;2023-02-25T16:39:21;3.80;99.90
53800;DHT22;39708;53.210;6.948;2023-02-25T16:41:48;3.80;99.90
53800;DHT22;39708;53.210;6.948;2023-02-25T16:44:22;3.70;99.90
53800;DHT22;39708;53.210;6.948;2023-02-25T16:46:51;3.90;99.90
53800;DHT22;39708;53.210;6.948;2023-02-25T16:49:37;3.70;99.90
53800;DHT22;39708;53.210;6.948;2023-02-25T16:52:04;3.90;99.90
53800;DHT22;39708;53.210;6.948;2023-02-25T16:54:36;3.90;99.90
53800;DHT22;39708;53.210;6.948;2023-02-25T16:57:05;3.70;99.90
53800;DHT22;39708;53.210;6.948;2023-02-25T16:59:37;3.70;99.90
53800;DHT22;39708;53.210;6.948;2023-02-25T17:02:21;3.70;99.90
53800;DHT22;39708;53.210;6.948;2023-02-25T17:04:52;3.90;99.90
53800;DHT22;39708;53.210;6.948;2023-02-25T17:09:58;3.90;99.90
53800;DHT22;39708;53.210;6.948;2023-02-25T17:12:31;4.00;99.90
53800;DHT22;39708;53.210;6.948;2023-02-25T17:15:02;3.70;99.90
53800;DHT22;39708;53.210;6.948;2023-02-25T17:17:34;3.60;99.90
53800;DHT22;39708;53.210;6.948;2023-02-25T17:20:03;3.40;99.90
53800;DHT22;39708;53.210;6.948;2023-02-25T17:22:31;3.40;99.90
53800;DHT22;39708;53.210;6.948;2023-02-25T17:24:58;3.40;99.90
53800;DHT22;39708;53.210;6.948;2023-02-25T17:27:25;3.40;99.90
53800;DHT22;39708;53.210;6.948;2023-02-25T17:29:51;3.50;99.90
53800;DHT22;39708;53.210;6.948;2023-02-25T17:32:21;3.50;99.90
53800;DHT22;39708;53.210;6.948;2023-02-25T17:34:50;3.60;99.90
53800;DHT22;39708;53.210;6.948;2023-02-25T17:37:17;4.00;99.90
53800;DHT22;39708;53.210;6.948;2023-02-25T17:39:43;3.40;99.90
53800;DHT22;39708;53.210;6.948;2023-02-25T17:44:54;3.40;99.90
53800;DHT22;39708;53.210;6.948;2023-02-25T17:47:31;3.50;99.90
53800;DHT22;39708;53.210;6.948;2023-02-25T17:50:01;3.50;99.90
53800;DHT22;39708;53.210;6.948;2023-02-25T17:52:35;3.40;99.90
53800;DHT22;39708;53.210;6.948;2023-02-25T17:55:05;3.50;99.90
53800;DHT22;39708;53.210;6.948;2023-02-25T17:57:39;3.50;99.90
53800;DHT22;39708;53.210;6.948;2023-02-25T18:00:34;3.40;99.90
53800;DHT22;39708;53.210;6.948;2023-02-25T18:03:16;3.40;99.90
53800;DHT22;39708;53.210;6.948;2023-02-25T18:08:18;3.40;99.90
53800;DHT22;39708;53.210;6.948;2023-02-25T18:10:47;3.30;99.90
53800;DHT22;39708;53.210;6.948;2023-02-25T18:13:27;3.30;99.90
53800;DHT22;39708;53.210;6.948;2023-02-25T18:16:16;3.20;99.90
53800;DHT22;39708;53.210;6.948;2023-02-25T18:18:51;3.20;99.90
53800;DHT22;39708;53.210;6.948;2023-02-25T18:21:17;3.30;99.90
53800;DHT22;39708;53.210;6.948;2023-02-25T18:23:44;3.10;99.90
53800;DHT22;39708;53.210;6.948;2023-02-25T18:26:14;3.10;99.90
53800;DHT22;39708;53.210;6.948;2023-02-25T18:28:41;3.10;99.90
53800;DHT22;39708;53.210;6.948;2023-02-25T18:31:07;3.10;99.90
53800;DHT22;39708;53.210;6.948;2023-02-25T18:33:33;3.10;99.90
53800;DHT22;39708;53.210;6.948;2023-02-25T18:35:59;3.10;99.90
53800;DHT22;39708;53.210;6.948;2023-02-25T18:38:26;3.20;99.90
53800;DHT22;39708;53.210;6.948;2023-02-25T18:40:54;3.20;99.90
53800;DHT22;39708;53.210;6.948;2023-02-25T18:43:25;3.20;99.90
53800;DHT22;39708;53.210;6.948;2023-02-25T18:45:58;3.30;99.90
53800;DHT22;39708;53.210;6.948;2023-02-25T18:48:24;4.50;99.90
53800;DHT22;39708;53.210;6.948;2023-02-25T18:50:51;3.20;99.90
53800;DHT22;39708;53.210;6.948;2023-02-25T18:53:19;3.00;99.90
53800;DHT22;39708;53.210;6.948;2023-02-25T18:55:45;2.70;99.90
53800;DHT22;39708;53.210;6.948;2023-02-25T18:58:16;2.30;99.90
53800;DHT22;39708;53.210;6.948;2023-02-25T19:00:48;2.00;99.90
53800;DHT22;39708;53.210;6.948;2023-02-25T19:03:36;1.80;99.90
53800;DHT22;39708;53.210;6.948;2023-02-25T19:06:04;1.70;99.90
53800;DHT22;39708;53.210;6.948;2023-02-25T19:08:30;1.50;99.90
53800;DHT22;39708;53.210;6.948;2023-02-25T19:10:55;1.50;99.90
53800;DHT22;39708;53.210;6.948;2023-02-25T19:13:39;1.50;99.90
53800;DHT22;39708;53.210;6.948;2023-02-25T19:16:06;1.50;99.90
53800;DHT22;39708;53.210;6.948;2023-02-25T19:18:32;1.50;99.90
53800;DHT22;39708;53.210;6.948;2023-02-25T19:20:57;1.50;99.90
53800;DHT22;39708;53.210;6.948;2023-02-25T19:23:23;1.50;99.90
53800;DHT22;39708;53.210;6.948;2023-02-25T19:25:54;1.80;99.90
53800;DHT22;39708;53.210;6.948;2023-02-25T19:28:20;1.50;99.90
53800;DHT22;39708;53.210;6.948;2023-02-25T19:30:45;1.80;99.90
53800;DHT22;39708;53.210;6.948;2023-02-25T19:33:12;1.50;99.90
53800;DHT22;39708;53.210;6.948;2023-02-25T19:35:40;1.40;99.90
53800;DHT22;39708;53.210;6.948;2023-02-25T19:38:07;1.40;99.90
53800;DHT22;39708;53.210;6.948;2023-02-25T19:40:34;2.00;99.90
53800;DHT22;39708;53.210;6.948;2023-02-25T19:43:00;1.50;99.90
53800;DHT22;39708;53.210;6.948;2023-02-25T19:45:27;1.50;99.90
53800;DHT22;39708;53.210;6.948;2023-02-25T19:47:53;1.50;99.90
53800;DHT22;39708;53.210;6.948;2023-02-25T19:50:20;1.50;99.90